Time;durP1;ratioP1;P1;durP2;ratioP2;P2;SDS_P1;SDS_P2;PMS_P1;PMS_P2;Temp;Humidity;BMP_temperature;BMP_pressure;BME280_temperature;BME280_humidity;BME280_pressure;Samples;Min_cycle;Max_cycle;Signal;HPM_P1;HPM_P2
2023/05/05 00:00:16;;;;;;;4.15;1.98;;;;;;;;;;5067926;28;20214;-58
2023/05/05 00:02:44;;;;;;;2.00;1.73;;;;;;;;;;5056483;28;20203;-58
2023/05/05 00:05:11;;;;;;;1.75;1.75;;;;;;;;;;5068859;28;20661;-57
2023/05/05 00:07:40;;;;;;;2.10;1.90;;;;;;;;;;5068289;28;20191;-58
2023/05/05 00:10:07;;;;;;;2.05;1.98;;;;;;;;;;5068812;28;20687;-58
2023/05/05 00:12:35;;;;;;;1.98;1.88;;;;;;;;;;5068627;28;20214;-58
2023/05/05 00:15:02;;;;;;;1.75;1.67;;;;;;;;;;5067864;28;20218;-58
2023/05/05 00:17:29;;;;;;;1.65;1.55;;;;;;;;;;5067644;28;20701;-58
2023/05/05 00:19:56;;;;;;;1.63;1.55;;;;;;;;;;5067466;28;20215;-58
2023/05/05 00:22:23;;;;;;;2.33;2.13;;;;;;;;;;5068559;28;20203;-58
2023/05/05 00:24:51;;;;;;;4.68;2.22;;;;;;;;;;5068562;28;20218;-58
2023/05/05 00:27:18;;;;;;;2.00;1.90;;;;;;;;;;5068182;28;20298;-58
2023/05/05 00:29:45;;;;;;;2.73;2.00;;;;;;;;;;5067643;28;20211;-58
2023/05/05 00:32:12;;;;;;;3.33;2.03;;;;;;;;;;5068141;28;20653;-58
2023/05/05 00:34:39;;;;;;;2.08;1.98;;;;;;;;;;5067850;28;20245;-58
2023/05/05 00:37:06;;;;;;;2.05;1.95;;;;;;;;;;5067746;28;20615;-58
2023/05/05 00:39:33;;;;;;;2.80;2.33;;;;;;;;;;5068079;28;20203;-58
2023/05/05 00:42:02;;;;;;;2.58;2.08;;;;;;;;;;5067657;28;20203;-58
2023/05/05 00:44:36;;;;;;;4.00;1.75;;;;;;;;;;5068281;28;20261;-58
2023/05/05 00:47:03;;;;;;;1.85;1.75;;;;;;;;;;5067762;28;20195;-58
2023/05/05 00:49:31;;;;;;;1.85;1.75;;;;;;;;;;5067085;28;20779;-58
2023/05/05 00:51:58;;;;;;;1.80;1.75;;;;;;;;;;5067396;28;20211;-58
2023/05/05 00:54:25;;;;;;;2.35;2.20;;;;;;;;;;5067682;28;20210;-58
2023/05/05 00:56:53;;;;;;;1.88;1.88;;;;;;;;;;5067160;28;20239;-58
2023/05/05 00:59:21;;;;;;;1.77;1.67;;;;;;;;;;5061636;28;20211;-57
2023/05/05 01:01:49;;;;;;;2.10;2.00;;;;;;;;;;5060991;28;20288;-58
2023/05/05 01:04:16;;;;;;;2.20;2.00;;;;;;;;;;5066251;28;20211;-57
2023/05/05 01:06:48;;;;;;;1.70;1.63;;;;;;;;;;5065355;28;20563;-58
2023/05/05 01:09:26;;;;;;;3.75;2.28;;;;;;;;;;5064185;28;20206;-57
2023/05/05 01:12:00;;;;;;;2.83;1.80;;;;;;;;;;5067343;28;20252;-56
2023/05/05 01:14:33;;;;;;;3.22;2.33;;;;;;;;;;5067471;28;20204;-57
2023/05/05 01:17:02;;;;;;;3.10;1.98;;;;;;;;;;5067512;28;20234;-58
2023/05/05 01:19:49;;;;;;;2.55;2.35;;;;;;;;;;5067535;28;20195;-58
2023/05/05 01:22:17;;;;;;;3.22;1.95;;;;;;;;;;5061072;28;20203;-58
2023/05/05 01:24:50;;;;;;;1.80;1.80;;;;;;;;;;5067421;28;20260;-58
2023/05/05 01:27:26;;;;;;;1.88;1.77;;;;;;;;;;5060420;28;20218;-58
2023/05/05 01:30:02;;;;;;;2.00;1.90;;;;;;;;;;5066720;28;20541;-58
2023/05/05 01:32:32;;;;;;;3.27;2.23;;;;;;;;;;5067437;28;20873;-58
2023/05/05 01:35:01;;;;;;;2.50;2.30;;;;;;;;;;5066969;28;20199;-58
2023/05/05 01:37:31;;;;;;;2.22;2.13;;;;;;;;;;5067407;28;20226;-58
2023/05/05 01:39:59;;;;;;;2.33;1.90;;;;;;;;;;5066912;28;20257;-58
2023/05/05 01:42:27;;;;;;;2.20;2.10;;;;;;;;;;5066940;28;20206;-58
2023/05/05 01:44:54;;;;;;;2.17;2.08;;;;;;;;;;5066739;28;20304;-58
2023/05/05 01:47:22;;;;;;;2.13;2.00;;;;;;;;;;5065942;28;20203;-58
2023/05/05 01:49:51;;;;;;;3.33;2.00;;;;;;;;;;5066413;28;20217;-58
2023/05/05 01:52:18;;;;;;;2.17;2.07;;;;;;;;;;5065833;28;20203;-58
2023/05/05 01:54:46;;;;;;;2.27;2.17;;;;;;;;;;5065815;28;20256;-58
2023/05/05 01:57:14;;;;;;;2.37;2.27;;;;;;;;;;5065589;28;20227;-57
2023/05/05 01:59:42;;;;;;;2.92;2.38;;;;;;;;;;5066563;28;20222;-58
2023/05/05 02:02:10;;;;;;;2.33;2.23;;;;;;;;;;5065688;28;20260;-58
2023/05/05 02:04:42;;;;;;;1.95;1.85;;;;;;;;;;5065501;28;20203;-57
2023/05/05 02:07:11;;;;;;;2.37;2.23;;;;;;;;;;5066010;28;20290;-57
2023/05/05 02:09:39;;;;;;;4.22;2.05;;;;;;;;;;5065714;28;20293;-57
2023/05/05 02:12:07;;;;;;;2.87;2.10;;;;;;;;;;5065608;28;20214;-57
2023/05/05 02:14:34;;;;;;;2.00;1.80;;;;;;;;;;5065800;28;20730;-56
2023/05/05 02:17:02;;;;;;;2.25;2.05;;;;;;;;;;5065513;28;20591;-56
2023/05/05 02:19:30;;;;;;;2.38;2.17;;;;;;;;;;5065621;28;20602;-59
2023/05/05 02:21:57;;;;;;;2.50;2.28;;;;;;;;;;5065538;28;20207;-57
2023/05/05 02:24:26;;;;;;;2.97;2.30;;;;;;;;;;5065114;28;20701;-57
2023/05/05 02:26:53;;;;;;;4.00;2.15;;;;;;;;;;5069867;28;20306;-57
2023/05/05 02:29:23;;;;;;;2.40;2.20;;;;;;;;;;5069516;28;20203;-57
2023/05/05 02:31:51;;;;;;;3.23;2.40;;;;;;;;;;5064294;28;20202;-57
2023/05/05 02:34:21;;;;;;;1.77;1.73;;;;;;;;;;5069789;28;20278;-59
2023/05/05 02:36:52;;;;;;;2.20;2.10;;;;;;;;;;5069631;28;20276;-57
2023/05/05 02:39:22;;;;;;;2.43;2.33;;;;;;;;;;5069606;28;20887;-57
2023/05/05 02:41:51;;;;;;;2.30;2.10;;;;;;;;;;5068946;28;20724;-57
2023/05/05 02:44:19;;;;;;;2.33;2.23;;;;;;;;;;5068727;28;20264;-57
2023/05/05 02:46:46;;;;;;;2.17;1.97;;;;;;;;;;5069020;28;20210;-57
2023/05/05 02:49:13;;;;;;;2.37;2.27;;;;;;;;;;5068585;28;20206;-57
2023/05/05 02:51:40;;;;;;;2.20;2.10;;;;;;;;;;5068379;28;20203;-58
2023/05/05 02:54:07;;;;;;;3.67;2.43;;;;;;;;;;5068436;28;20549;-58
2023/05/05 02:56:40;;;;;;;2.40;2.20;;;;;;;;;;5068177;28;20231;-57
2023/05/05 02:59:15;;;;;;;4.20;2.37;;;;;;;;;;5068554;28;20755;-57
2023/05/05 03:01:49;;;;;;;2.47;2.23;;;;;;;;;;5068753;28;20207;-57
2023/05/05 03:04:18;;;;;;;2.50;2.40;;;;;;;;;;5068409;28;20301;-58
2023/05/05 03:06:49;;;;;;;2.60;2.40;;;;;;;;;;5068174;28;20226;-58
2023/05/05 03:09:21;;;;;;;2.27;2.00;;;;;;;;;;5068216;28;20576;-58
2023/05/05 03:11:50;;;;;;;2.40;2.30;;;;;;;;;;5068581;28;20199;-58
2023/05/05 03:14:20;;;;;;;2.50;2.40;;;;;;;;;;5069282;28;20199;-58
2023/05/05 03:16:48;;;;;;;3.13;2.20;;;;;;;;;;5068278;28;20258;-58
2023/05/05 03:19:17;;;;;;;2.30;2.20;;;;;;;;;;5068622;28;20682;-58
2023/05/05 03:21:44;;;;;;;2.47;2.33;;;;;;;;;;5068443;28;20265;-58
2023/05/05 03:24:15;;;;;;;2.87;2.60;;;;;;;;;;5068777;28;20227;-58
2023/05/05 03:26:42;;;;;;;2.27;2.07;;;;;;;;;;5068649;28;20286;-58
2023/05/05 03:29:09;;;;;;;2.17;2.07;;;;;;;;;;5068651;28;20416;-58
2023/05/05 03:31:37;;;;;;;2.57;2.37;;;;;;;;;;5068268;28;20211;-58
2023/05/05 03:34:05;;;;;;;3.73;2.47;;;;;;;;;;5069006;28;20215;-58
2023/05/05 03:36:32;;;;;;;4.13;2.67;;;;;;;;;;5068397;28;20207;-57
2023/05/05 03:38:59;;;;;;;2.60;2.40;;;;;;;;;;5068515;28;20229;-57
2023/05/05 03:41:27;;;;;;;2.90;2.50;;;;;;;;;;5064607;28;20288;-58
2023/05/05 03:43:54;;;;;;;2.53;2.43;;;;;;;;;;5067750;28;20199;-58
2023/05/05 03:46:21;;;;;;;2.43;2.07;;;;;;;;;;5068029;28;20211;-58
2023/05/05 03:48:50;;;;;;;2.77;2.57;;;;;;;;;;5067733;28;20195;-58
2023/05/05 03:51:17;;;;;;;2.33;2.20;;;;;;;;;;5067572;28;20218;-57
2023/05/05 03:53:44;;;;;;;2.40;2.30;;;;;;;;;;5068072;28;20662;-58
2023/05/05 03:56:11;;;;;;;2.67;2.47;;;;;;;;;;5068057;28;20203;-57
2023/05/05 03:58:38;;;;;;;2.33;2.20;;;;;;;;;;5068067;28;20219;-58
2023/05/05 04:01:05;;;;;;;2.37;2.27;;;;;;;;;;5067995;28;20207;-57
2023/05/05 04:03:32;;;;;;;2.50;2.30;;;;;;;;;;5068390;28;20214;-58
2023/05/05 04:06:01;;;;;;;2.20;2.20;;;;;;;;;;5068237;28;20229;-58
2023/05/05 04:08:28;;;;;;;1.93;1.87;;;;;;;;;;5068029;28;20205;-58
2023/05/05 04:10:56;;;;;;;2.23;2.10;;;;;;;;;;5060309;28;20614;-57
2023/05/05 04:13:23;;;;;;;2.17;2.07;;;;;;;;;;5066744;28;20209;-58
2023/05/05 04:15:50;;;;;;;2.27;2.17;;;;;;;;;;5067889;28;20230;-58
2023/05/05 04:18:17;;;;;;;2.57;2.47;;;;;;;;;;5067801;28;20292;-58
2023/05/05 04:20:44;;;;;;;2.67;2.20;;;;;;;;;;5067023;28;20692;-58
2023/05/05 04:23:13;;;;;;;3.07;2.50;;;;;;;;;;5068288;28;20271;-58
2023/05/05 04:25:40;;;;;;;2.50;2.33;;;;;;;;;;5068033;28;20968;-58
2023/05/05 04:28:07;;;;;;;2.60;2.17;;;;;;;;;;5067678;28;20272;-58
2023/05/05 04:30:34;;;;;;;2.07;1.97;;;;;;;;;;5067561;28;20252;-58
2023/05/05 04:33:01;;;;;;;2.83;2.30;;;;;;;;;;5058133;28;20199;-58
2023/05/05 04:35:28;;;;;;;2.80;2.60;;;;;;;;;;5064573;28;21768;-57
2023/05/05 04:37:55;;;;;;;2.40;2.30;;;;;;;;;;5065466;28;20268;-58
2023/05/05 04:40:25;;;;;;;3.60;2.33;;;;;;;;;;5066052;28;20746;-58
2023/05/05 04:42:52;;;;;;;2.80;2.50;;;;;;;;;;5067483;28;20210;-58
2023/05/05 04:45:19;;;;;;;2.67;2.47;;;;;;;;;;5067112;28;20295;-58
2023/05/05 04:47:46;;;;;;;2.53;2.33;;;;;;;;;;5067404;28;20209;-58
2023/05/05 04:50:13;;;;;;;2.70;2.50;;;;;;;;;;5067392;28;20237;-57
2023/05/05 04:52:40;;;;;;;3.03;2.80;;;;;;;;;;5063927;28;20214;-58
2023/05/05 04:55:09;;;;;;;2.70;2.50;;;;;;;;;;5067956;28;20751;-58
2023/05/05 04:57:37;;;;;;;2.53;2.33;;;;;;;;;;5066718;28;20728;-58
2023/05/05 05:00:05;;;;;;;3.03;2.83;;;;;;;;;;5067094;28;20203;-57
2023/05/05 05:02:32;;;;;;;4.40;2.47;;;;;;;;;;5066553;28;20203;-58
2023/05/05 05:04:59;;;;;;;2.40;2.20;;;;;;;;;;5067361;28;20203;-58
2023/05/05 05:07:26;;;;;;;2.63;2.43;;;;;;;;;;5066313;28;20203;-58
2023/05/05 05:09:53;;;;;;;2.53;2.43;;;;;;;;;;5067529;28;20269;-58
2023/05/05 05:12:20;;;;;;;2.77;2.37;;;;;;;;;;5066367;28;20215;-58
2023/05/05 05:14:49;;;;;;;2.67;2.57;;;;;;;;;;5066424;28;20294;-58
2023/05/05 05:17:16;;;;;;;3.67;2.95;;;;;;;;;;5064253;28;20223;-58
2023/05/05 05:19:43;;;;;;;3.65;2.80;;;;;;;;;;5067680;28;20265;-58
2023/05/05 05:22:10;;;;;;;5.07;3.63;;;;;;;;;;5067295;28;20211;-58
2023/05/05 05:24:37;;;;;;;2.75;2.63;;;;;;;;;;5067768;28;20211;-58
2023/05/05 05:27:06;;;;;;;3.38;3.08;;;;;;;;;;5067307;28;20207;-58
2023/05/05 05:29:34;;;;;;;4.93;3.37;;;;;;;;;;5065969;28;20226;-58
2023/05/05 05:32:02;;;;;;;5.38;3.22;;;;;;;;;;5066650;28;20962;-57
2023/05/05 05:34:29;;;;;;;2.88;2.75;;;;;;;;;;5066395;28;20257;-60
2023/05/05 05:36:58;;;;;;;2.97;2.78;;;;;;;;;;5067890;28;20210;-57
2023/05/05 05:39:25;;;;;;;3.03;2.83;;;;;;;;;;5066699;28;20277;-57
2023/05/05 05:41:55;;;;;;;3.28;2.95;;;;;;;;;;5067992;28;20231;-57
2023/05/05 05:44:22;;;;;;;3.00;2.80;;;;;;;;;;5067908;28;20210;-57
2023/05/05 05:46:49;;;;;;;2.97;2.78;;;;;;;;;;5067810;28;20207;-56
2023/05/05 05:49:17;;;;;;;5.25;2.80;;;;;;;;;;5067256;28;20305;-57
2023/05/05 05:51:44;;;;;;;8.57;4.10;;;;;;;;;;5067142;28;20203;-57
2023/05/05 05:54:11;;;;;;;3.90;2.85;;;;;;;;;;5067805;28;20586;-57
2023/05/05 05:56:38;;;;;;;3.35;3.08;;;;;;;;;;5064971;28;20203;-57
2023/05/05 05:59:06;;;;;;;5.10;3.42;;;;;;;;;;5066987;28;20566;-57
2023/05/05 06:01:34;;;;;;;5.40;3.63;;;;;;;;;;5067236;28;20203;-57
2023/05/05 06:04:01;;;;;;;5.45;3.45;;;;;;;;;;5067587;28;20699;-58
2023/05/05 06:06:30;;;;;;;3.15;2.95;;;;;;;;;;5067277;28;20206;-58
2023/05/05 06:08:57;;;;;;;3.95;3.58;;;;;;;;;;5067691;28;20203;-58
2023/05/05 06:11:24;;;;;;;5.55;3.50;;;;;;;;;;5067217;28;20214;-57
2023/05/05 06:13:51;;;;;;;3.45;3.15;;;;;;;;;;5067863;28;20210;-57
2023/05/05 06:16:18;;;;;;;3.33;3.00;;;;;;;;;;5067217;28;20254;-57
2023/05/05 06:18:45;;;;;;;3.65;3.25;;;;;;;;;;5067611;28;20264;-58
2023/05/05 06:21:13;;;;;;;3.47;3.28;;;;;;;;;;5066739;28;20203;-57
2023/05/05 06:23:41;;;;;;;3.78;3.45;;;;;;;;;;5067488;28;20330;-57
2023/05/05 06:26:08;;;;;;;4.00;3.58;;;;;;;;;;5066137;28;20696;-57
2023/05/05 06:28:36;;;;;;;4.45;3.50;;;;;;;;;;5067650;28;20666;-58
2023/05/05 06:31:03;;;;;;;3.72;3.35;;;;;;;;;;5067338;28;20226;-58
2023/05/05 06:33:30;;;;;;;3.60;3.40;;;;;;;;;;5073647;28;20629;-58
2023/05/05 06:35:58;;;;;;;4.97;3.65;;;;;;;;;;5075383;28;20225;-58
2023/05/05 06:38:25;;;;;;;4.20;3.60;;;;;;;;;;5065560;28;22307;-58
2023/05/05 06:40:53;;;;;;;3.47;3.17;;;;;;;;;;5067312;28;20825;-59
2023/05/05 06:43:20;;;;;;;4.07;3.22;;;;;;;;;;5066812;28;20257;-58
2023/05/05 06:45:47;;;;;;;3.88;3.58;;;;;;;;;;5066466;28;20211;-58
2023/05/05 06:48:15;;;;;;;3.47;3.17;;;;;;;;;;5065407;28;20261;-58
2023/05/05 06:50:42;;;;;;;3.58;3.38;;;;;;;;;;5066788;28;20232;-59
2023/05/05 06:53:09;;;;;;;3.17;2.90;;;;;;;;;;5066487;28;20214;-59
2023/05/05 06:55:36;;;;;;;3.92;3.60;;;;;;;;;;5064708;28;20199;-66
2023/05/05 06:58:05;;;;;;;3.50;3.30;;;;;;;;;;5066423;28;20231;-59
2023/05/05 07:00:32;;;;;;;3.20;3.00;;;;;;;;;;5066606;28;20227;-59
2023/05/05 07:02:59;;;;;;;6.47;3.30;;;;;;;;;;5064935;28;20658;-58
2023/05/05 07:05:26;;;;;;;4.28;3.90;;;;;;;;;;5066028;28;20206;-58
2023/05/05 07:07:53;;;;;;;3.22;3.03;;;;;;;;;;5063957;28;20261;-59
2023/05/05 07:10:21;;;;;;;7.78;3.60;;;;;;;;;;5067976;28;20203;-58
2023/05/05 07:12:48;;;;;;;4.13;3.45;;;;;;;;;;5069919;28;20203;-58
2023/05/05 07:15:16;;;;;;;3.20;3.00;;;;;;;;;;5070295;28;20738;-58
2023/05/05 07:17:44;;;;;;;3.85;3.55;;;;;;;;;;5069953;28;20218;-60
2023/05/05 07:20:11;;;;;;;3.25;3.05;;;;;;;;;;5069581;28;20215;-59
2023/05/05 07:22:38;;;;;;;3.17;2.92;;;;;;;;;;5069951;28;20223;-59
2023/05/05 07:25:06;;;;;;;3.33;3.17;;;;;;;;;;5064955;28;20213;-59
2023/05/05 07:27:33;;;;;;;3.63;2.83;;;;;;;;;;5066954;28;20203;-58
2023/05/05 07:30:00;;;;;;;3.28;3.08;;;;;;;;;;5065467;28;20380;-59
2023/05/05 07:32:29;;;;;;;3.22;3.03;;;;;;;;;;5066524;28;20211;-60
2023/05/05 07:34:56;;;;;;;3.05;2.95;;;;;;;;;;5066282;28;20210;-60
2023/05/05 07:37:23;;;;;;;3.55;3.17;;;;;;;;;;5067706;28;20279;-60
2023/05/05 07:39:50;;;;;;;2.85;2.72;;;;;;;;;;5068889;28;20234;-59
2023/05/05 07:42:19;;;;;;;2.60;2.50;;;;;;;;;;5069177;28;20257;-58
2023/05/05 07:44:46;;;;;;;2.70;2.50;;;;;;;;;;5068444;28;20720;-57
2023/05/05 07:47:13;;;;;;;3.00;2.80;;;;;;;;;;5067440;28;20226;-58
2023/05/05 07:49:42;;;;;;;2.50;2.40;;;;;;;;;;5069300;28;20203;-58
2023/05/05 07:52:09;;;;;;;13.38;2.58;;;;;;;;;;5069155;28;20669;-58
2023/05/05 07:54:36;;;;;;;3.03;2.92;;;;;;;;;;5068111;28;21028;-58
2023/05/05 07:57:03;;;;;;;2.42;2.33;;;;;;;;;;5068649;28;20203;-58
2023/05/05 07:59:30;;;;;;;3.17;2.97;;;;;;;;;;5068857;28;20223;-57
2023/05/05 08:01:57;;;;;;;2.85;2.75;;;;;;;;;;5068495;28;20203;-58
2023/05/05 08:04:24;;;;;;;2.78;2.67;;;;;;;;;;5069372;28;20689;-58
2023/05/05 08:06:52;;;;;;;3.20;3.00;;;;;;;;;;5068253;28;20211;-58
2023/05/05 08:09:19;;;;;;;2.55;2.45;;;;;;;;;;5068629;28;20214;-57
2023/05/05 08:11:46;;;;;;;3.53;2.75;;;;;;;;;;5068256;28;20199;-58
2023/05/05 08:14:14;;;;;;;3.00;2.80;;;;;;;;;;5068785;28;20218;-58
2023/05/05 08:16:41;;;;;;;3.05;2.65;;;;;;;;;;5068262;28;20302;-58
2023/05/05 08:19:08;;;;;;;3.20;3.00;;;;;;;;;;5068690;28;20234;-57
2023/05/05 08:21:35;;;;;;;2.80;2.60;;;;;;;;;;5067008;28;20203;-58
2023/05/05 08:24:03;;;;;;;2.90;2.70;;;;;;;;;;5068284;28;20227;-56
2023/05/05 08:26:30;;;;;;;5.03;3.05;;;;;;;;;;5068173;28;20284;-58
2023/05/05 08:28:59;;;;;;;3.55;3.30;;;;;;;;;;5068489;28;20198;-60
2023/05/05 08:31:27;;;;;;;2.72;2.58;;;;;;;;;;5049779;28;20301;-59
2023/05/05 08:33:54;;;;;;;3.03;2.85;;;;;;;;;;5068133;28;20935;-59
2023/05/05 08:36:21;;;;;;;2.70;2.60;;;;;;;;;;5067558;28;20211;-59
2023/05/05 08:38:48;;;;;;;3.05;2.80;;;;;;;;;;5067993;28;20227;-60
2023/05/05 08:41:18;;;;;;;2.53;2.42;;;;;;;;;;5068134;28;20253;-59
2023/05/05 08:43:46;;;;;;;4.80;3.20;;;;;;;;;;5067906;28;20295;-59
2023/05/05 08:46:13;;;;;;;3.60;3.22;;;;;;;;;;5068465;28;20238;-59
2023/05/05 08:48:42;;;;;;;2.95;2.75;;;;;;;;;;5067695;28;20662;-60
2023/05/05 08:51:10;;;;;;;3.40;3.15;;;;;;;;;;5067794;28;20208;-60
2023/05/05 08:53:45;;;;;;;5.15;2.95;;;;;;;;;;5065962;28;20230;-57
2023/05/05 08:56:14;;;;;;;3.53;3.30;;;;;;;;;;5067977;28;20206;-57
2023/05/05 08:58:42;;;;;;;4.18;3.20;;;;;;;;;;5065444;28;20255;-57
2023/05/05 09:01:10;;;;;;;2.92;2.78;;;;;;;;;;5063012;28;20665;-57
2023/05/05 09:03:38;;;;;;;2.78;2.67;;;;;;;;;;5069493;28;20569;-57
2023/05/05 09:06:05;;;;;;;2.90;2.70;;;;;;;;;;5066763;28;20782;-56
2023/05/05 09:08:33;;;;;;;2.95;2.70;;;;;;;;;;5066962;28;20206;-58
2023/05/05 09:11:00;;;;;;;2.60;2.47;;;;;;;;;;5067290;28;20659;-57
2023/05/05 09:13:28;;;;;;;2.67;2.58;;;;;;;;;;5066750;28;20210;-58
2023/05/05 09:15:56;;;;;;;2.60;2.50;;;;;;;;;;5065749;28;20214;-58
2023/05/05 09:18:23;;;;;;;2.67;2.47;;;;;;;;;;5067268;28;20428;-58
2023/05/05 09:20:50;;;;;;;2.83;2.72;;;;;;;;;;5068386;28;20213;-58
2023/05/05 09:23:18;;;;;;;3.33;2.85;;;;;;;;;;5066497;28;20272;-58
2023/05/05 09:25:46;;;;;;;2.47;2.40;;;;;;;;;;5067276;28;20203;-58
2023/05/05 09:28:14;;;;;;;2.95;2.85;;;;;;;;;;5067259;28;20239;-58
2023/05/05 09:30:42;;;;;;;3.70;3.13;;;;;;;;;;5067216;28;20588;-58
2023/05/05 09:33:11;;;;;;;3.00;2.60;;;;;;;;;;5066738;28;20260;-59
2023/05/05 09:35:50;;;;;;;2.28;2.17;;;;;;;;;;5068365;28;20297;-58
2023/05/05 09:38:18;;;;;;;2.47;2.38;;;;;;;;;;5071852;28;20860;-59
2023/05/05 09:40:46;;;;;;;2.45;2.35;;;;;;;;;;5064381;28;20292;-60
2023/05/05 09:43:13;;;;;;;2.10;2.00;;;;;;;;;;5064760;28;20293;-59
2023/05/05 09:45:40;;;;;;;5.53;1.98;;;;;;;;;;5066978;28;20264;-59
2023/05/05 09:48:07;;;;;;;2.60;2.40;;;;;;;;;;5066884;28;20203;-58
2023/05/05 09:50:44;;;;;;;2.10;1.98;;;;;;;;;;5066647;28;20677;-57
2023/05/05 09:53:11;;;;;;;1.88;1.77;;;;;;;;;;5066444;28;20207;-58
2023/05/05 09:55:39;;;;;;;2.40;2.28;;;;;;;;;;5065768;28;20233;-60
2023/05/05 09:58:18;;;;;;;5.18;1.70;;;;;;;;;;5066385;28;20217;-59
2023/05/05 10:00:45;;;;;;;1.75;1.60;;;;;;;;;;5066769;28;20234;-58
2023/05/05 10:03:12;;;;;;;1.58;1.58;;;;;;;;;;5066506;28;20645;-60
2023/05/05 10:05:49;;;;;;;1.55;1.48;;;;;;;;;;5066780;28;20615;-59
2023/05/05 10:08:16;;;;;;;1.35;1.33;;;;;;;;;;5066642;28;20214;-59
2023/05/05 10:10:47;;;;;;;1.30;1.25;;;;;;;;;;5067751;28;20210;-59
2023/05/05 10:13:15;;;;;;;2.22;1.20;;;;;;;;;;5064851;28;20309;-59
2023/05/05 10:15:43;;;;;;;1.50;0.95;;;;;;;;;;5067304;28;20791;-59
2023/05/05 10:18:10;;;;;;;1.00;1.00;;;;;;;;;;5066871;28;20195;-59
2023/05/05 10:20:39;;;;;;;0.93;0.93;;;;;;;;;;5066874;28;20316;-59
2023/05/05 10:23:08;;;;;;;1.05;1.02;;;;;;;;;;5066594;28;20222;-59
2023/05/05 10:25:39;;;;;;;0.80;0.80;;;;;;;;;;5050205;28;20669;-60
2023/05/05 10:28:07;;;;;;;0.60;0.60;;;;;;;;;;5067037;28;20723;-58
2023/05/05 10:30:37;;;;;;;0.73;0.73;;;;;;;;;;5067210;28;20240;-59
2023/05/05 10:33:10;;;;;;;0.43;0.43;;;;;;;;;;5067082;28;20681;-58
2023/05/05 10:35:40;;;;;;;0.60;0.60;;;;;;;;;;5066730;28;20309;-59
2023/05/05 10:38:09;;;;;;;0.40;0.40;;;;;;;;;;5066087;28;20231;-57
2023/05/05 10:40:36;;;;;;;0.43;0.43;;;;;;;;;;5065968;28;20334;-59
2023/05/05 10:43:03;;;;;;;0.40;0.40;;;;;;;;;;5066810;28;20213;-57
2023/05/05 10:45:31;;;;;;;0.30;0.30;;;;;;;;;;5068067;28;20207;-59
2023/05/05 10:48:00;;;;;;;0.40;0.40;;;;;;;;;;5069871;28;20203;-59
2023/05/05 10:50:29;;;;;;;0.40;0.40;;;;;;;;;;5066320;28;20203;-59
2023/05/05 10:52:58;;;;;;;1.55;0.40;;;;;;;;;;5069403;28;20203;-60
2023/05/05 10:55:30;;;;;;;0.43;0.40;;;;;;;;;;5069755;28;20206;-57
2023/05/05 10:57:57;;;;;;;0.30;0.30;;;;;;;;;;5068210;28;20211;-58
2023/05/05 11:00:43;;;;;;;0.88;0.47;;;;;;;;;;5064159;28;20234;-58
2023/05/05 11:03:20;;;;;;;0.40;0.40;;;;;;;;;;5068291;28;20219;-58
2023/05/05 11:06:02;;;;;;;0.30;0.30;;;;;;;;;;5067312;28;20902;-58
2023/05/05 11:08:30;;;;;;;0.50;0.30;;;;;;;;;;5068473;28;20719;-58
2023/05/05 11:10:58;;;;;;;0.38;0.38;;;;;;;;;;5069384;28;20844;-58
2023/05/05 11:13:26;;;;;;;0.20;0.20;;;;;;;;;;5069364;28;20203;-59
2023/05/05 11:15:53;;;;;;;0.30;0.30;;;;;;;;;;5070839;28;20207;-58
2023/05/05 11:18:29;;;;;;;0.40;0.40;;;;;;;;;;5069662;28;20298;-58
2023/05/05 11:21:07;;;;;;;0.47;0.47;;;;;;;;;;5076656;28;20269;-58
2023/05/05 11:23:35;;;;;;;0.30;0.30;;;;;;;;;;5066710;28;20258;-58
2023/05/05 11:26:03;;;;;;;0.40;0.40;;;;;;;;;;5072606;28;20630;-58
2023/05/05 11:28:31;;;;;;;0.20;0.20;;;;;;;;;;5071602;28;20209;-58
2023/05/05 11:31:17;;;;;;;0.38;0.20;;;;;;;;;;5074817;28;20649;-58
2023/05/05 11:33:44;;;;;;;0.20;0.20;;;;;;;;;;5068852;28;20298;-58
2023/05/05 11:36:12;;;;;;;0.20;0.20;;;;;;;;;;5068501;28;20301;-58
2023/05/05 11:38:45;;;;;;;0.25;0.25;;;;;;;;;;5069259;28;20215;-58
2023/05/05 11:41:16;;;;;;;0.30;0.30;;;;;;;;;;5069040;28;20277;-58
2023/05/05 11:43:43;;;;;;;0.30;0.30;;;;;;;;;;5068908;28;20211;-58
2023/05/05 11:46:11;;;;;;;0.20;0.20;;;;;;;;;;5069273;28;20616;-58
2023/05/05 11:48:45;;;;;;;0.20;0.20;;;;;;;;;;5069379;28;20850;-59
2023/05/05 11:51:15;;;;;;;0.20;0.20;;;;;;;;;;5068272;28;20233;-59
2023/05/05 11:53:42;;;;;;;0.35;0.35;;;;;;;;;;5069130;28;20214;-58
2023/05/05 11:56:10;;;;;;;0.52;0.40;;;;;;;;;;5067412;28;20272;-58
2023/05/05 11:58:40;;;;;;;0.30;0.30;;;;;;;;;;5068872;28;20559;-58
2023/05/05 12:01:07;;;;;;;0.40;0.40;;;;;;;;;;5065899;28;20245;-58
2023/05/05 12:03:35;;;;;;;0.30;0.30;;;;;;;;;;5069089;28;20203;-58
2023/05/05 12:06:02;;;;;;;0.30;0.30;;;;;;;;;;5073159;28;20191;-58
2023/05/05 12:08:29;;;;;;;0.65;0.40;;;;;;;;;;5069727;28;20207;-59
2023/05/05 12:11:02;;;;;;;2.08;0.47;;;;;;;;;;5069607;28;20688;-58
2023/05/05 12:13:29;;;;;;;0.20;0.20;;;;;;;;;;5073257;28;20203;-57
2023/05/05 12:16:08;;;;;;;0.15;0.15;;;;;;;;;;5069269;28;20235;-58
2023/05/05 12:18:35;;;;;;;0.20;0.20;;;;;;;;;;5069190;28;20235;-58
2023/05/05 12:21:02;;;;;;;0.30;0.30;;;;;;;;;;5068936;28;20308;-58
2023/05/05 12:23:29;;;;;;;0.30;0.30;;;;;;;;;;5068931;28;20223;-57
2023/05/05 12:25:56;;;;;;;0.30;0.30;;;;;;;;;;5067749;28;20207;-57
2023/05/05 12:28:23;;;;;;;0.30;0.30;;;;;;;;;;5069113;28;20206;-57
2023/05/05 12:30:57;;;;;;;0.20;0.20;;;;;;;;;;5068832;28;20195;-57
2023/05/05 12:33:25;;;;;;;0.20;0.20;;;;;;;;;;5068605;28;20293;-57
2023/05/05 12:35:53;;;;;;;0.32;0.32;;;;;;;;;;5068017;28;20199;-57
2023/05/05 12:38:20;;;;;;;0.95;0.50;;;;;;;;;;5067822;28;20199;-57
2023/05/05 12:40:47;;;;;;;0.20;0.20;;;;;;;;;;5068527;28;20243;-57
2023/05/05 12:43:25;;;;;;;0.30;0.30;;;;;;;;;;5069178;28;20225;-57
2023/05/05 12:45:59;;;;;;;0.20;0.17;;;;;;;;;;5066751;28;20191;-57
2023/05/05 12:48:27;;;;;;;0.22;0.22;;;;;;;;;;5065135;28;20674;-57
2023/05/05 12:50:54;;;;;;;0.15;0.15;;;;;;;;;;5067887;28;20430;-57
2023/05/05 12:53:22;;;;;;;0.13;0.13;;;;;;;;;;5067770;28;20211;-57
2023/05/05 12:55:49;;;;;;;0.20;0.20;;;;;;;;;;5064484;28;20734;-57
2023/05/05 12:58:16;;;;;;;0.80;0.30;;;;;;;;;;5067859;28;20245;-57
2023/05/05 13:00:43;;;;;;;0.20;0.20;;;;;;;;;;5067659;28;20226;-57
2023/05/05 13:03:19;;;;;;;0.30;0.30;;;;;;;;;;5064415;28;21614;-57
2023/05/05 13:05:47;;;;;;;0.20;0.20;;;;;;;;;;5084167;28;20267;-58
2023/05/05 13:08:14;;;;;;;0.38;0.30;;;;;;;;;;5075961;28;20214;-58
2023/05/05 13:10:57;;;;;;;0.20;0.20;;;;;;;;;;5067256;28;20642;-57
2023/05/05 13:13:24;;;;;;;0.10;0.10;;;;;;;;;;5066840;28;20199;-57
2023/05/05 13:15:51;;;;;;;0.10;0.10;;;;;;;;;;5067026;28;20585;-60
2023/05/05 13:18:18;;;;;;;0.20;0.20;;;;;;;;;;5067835;28;20264;-58
2023/05/05 13:20:47;;;;;;;0.10;0.10;;;;;;;;;;5068984;28;20735;-61
2023/05/05 13:23:14;;;;;;;0.20;0.20;;;;;;;;;;5067655;28;20227;-58
2023/05/05 13:25:41;;;;;;;0.20;0.20;;;;;;;;;;5065317;28;20220;-57
2023/05/05 13:28:09;;;;;;;0.20;0.20;;;;;;;;;;5062011;28;20237;-57
2023/05/05 13:30:36;;;;;;;0.30;0.30;;;;;;;;;;5066088;28;20203;-58
2023/05/05 13:33:10;;;;;;;0.22;0.20;;;;;;;;;;5067732;28;20213;-58
2023/05/05 13:35:37;;;;;;;0.90;0.20;;;;;;;;;;5068468;28;20202;-58
2023/05/05 13:38:06;;;;;;;0.40;0.13;;;;;;;;;;5065871;28;20222;-58
2023/05/05 13:40:33;;;;;;;0.10;0.10;;;;;;;;;;5067648;28;20414;-57
2023/05/05 13:43:00;;;;;;;1.85;0.20;;;;;;;;;;5067753;28;20207;-58
2023/05/05 13:45:28;;;;;;;0.20;0.20;;;;;;;;;;5067861;28;20699;-59
2023/05/05 13:47:56;;;;;;;0.20;0.20;;;;;;;;;;5068006;28;20235;-59
2023/05/05 13:50:23;;;;;;;0.38;0.25;;;;;;;;;;5067439;28;20268;-58
2023/05/05 13:52:50;;;;;;;0.30;0.30;;;;;;;;;;5067496;28;20301;-59
2023/05/05 13:55:18;;;;;;;0.20;0.20;;;;;;;;;;5067410;28;20625;-59
2023/05/05 13:57:46;;;;;;;0.20;0.20;;;;;;;;;;5067741;28;20222;-58
2023/05/05 14:00:13;;;;;;;0.30;0.30;;;;;;;;;;5067732;28;20261;-58
2023/05/05 14:02:40;;;;;;;1.40;0.40;;;;;;;;;;5067444;28;20221;-58
2023/05/05 14:05:08;;;;;;;0.30;0.30;;;;;;;;;;5067170;28;20227;-58
2023/05/05 14:07:35;;;;;;;1.88;0.43;;;;;;;;;;5067501;28;20789;-58
2023/05/05 14:10:02;;;;;;;0.40;0.30;;;;;;;;;;5067403;28;20210;-59
2023/05/05 14:12:33;;;;;;;0.20;0.20;;;;;;;;;;5067145;28;20199;-58
2023/05/05 14:15:00;;;;;;;0.35;0.30;;;;;;;;;;5067456;28;20215;-58
2023/05/05 14:17:27;;;;;;;0.57;0.25;;;;;;;;;;5066081;28;20230;-58
2023/05/05 14:19:55;;;;;;;0.25;0.25;;;;;;;;;;5066479;28;20688;-58
2023/05/05 14:22:22;;;;;;;0.30;0.30;;;;;;;;;;5067056;28;20268;-58
2023/05/05 14:24:49;;;;;;;3.28;0.43;;;;;;;;;;5045887;28;20203;-58
2023/05/05 14:27:19;;;;;;;0.25;0.25;;;;;;;;;;5063112;28;20274;-58
2023/05/05 14:29:47;;;;;;;0.30;0.30;;;;;;;;;;5067299;28;20206;-57
2023/05/05 14:32:14;;;;;;;0.57;0.47;;;;;;;;;;5066549;28;20203;-57
2023/05/05 14:34:41;;;;;;;0.38;0.35;;;;;;;;;;5066375;28;20613;-58
2023/05/05 14:37:08;;;;;;;1.00;0.60;;;;;;;;;;5066727;28;20217;-56
2023/05/05 14:39:35;;;;;;;0.75;0.40;;;;;;;;;;5067289;28;20268;-57
2023/05/05 14:42:05;;;;;;;0.28;0.28;;;;;;;;;;5066611;28;20226;-58
2023/05/05 14:44:32;;;;;;;2.22;1.00;;;;;;;;;;5064846;28;20306;-58
2023/05/05 14:47:00;;;;;;;3.47;0.80;;;;;;;;;;5066837;28;20284;-62
2023/05/05 14:49:27;;;;;;;0.65;0.65;;;;;;;;;;5066638;28;20286;-57